Aérodrome :







RETROUVEZ-NOUS SUR...

 
LOGIN :

S'inscrire | Disclaimer

   EN    FR    IT 

 









Légende :    VFR   VFR Marginal   IFR   IFR Intensif   IFR Très Intensif
Visi : 
Plafond : 
>= 8 km
>= 3000ft
5 à 8 km
1000 à 3000 ft
1500m à 5 km
500 à 1000 ft
800 à 1500m
200 à 500 ft
< 800m
< 200 ft
Symboles :   Orages  Brouillard  Fortes neiges  Fortes précipitations  Vent > 20 kt






- Altitude de l'aérodrome : 241 ft
- Code IATA : CEF


KCEF - Westover ARB/Metropolitan

DERNIER METAR :
  • 210356Z 32010KT 10SM CLR M07/M17 A3043 RMK AO2A SLP314 T10681170

METARs EXPIRÉS :
  • 210256Z 32007KT 10SM FEW060 M06/M17 A3044 RMK AO2A SLP318 T10641170 52014
  • 210156Z 32011KT 10SM FEW050 M05/M17 A3043 RMK AO2A SLP314 T10551173

TAF TAF KCEF
Valide du 21 à 03h jusqu'au 22 à 09h UTC


210300Z 2103/2209 34010G15KT 9999 FEW060 QNH3043INS
TEMPO 2103/2104 34015G25KT 520004
BECMG 2103/2104 34009KT 9999 SKC QNH3043INS
BECMG 2114/2115 28012KT 9999 FEW060 QNH3034INS
BECMG 2122/2123 VRB06KT 9999 SKC QNH3018INS TX00/2120Z TNM14/2111Z LAST NO AMDS AFT 2104 NEXT 2111



MET'MAP, la Météo Aéronautique d'un coup d'oeil ! - Copyright ORBIFLY Décembre 2007 - Disclaimer

ORBIFLY MET'MAP TEAM :

Programmation & Développement : Alexandra Zaïnal
Sur une idée originale de : Baudouin d'Aumeries
Assistance à la programmation : Marc-Olivier Méhu
Soutien technique & logistique : Manuel Goepfert

Contact : metmap@orbifly.com




SOURCES & CREDITS :

   NOAA